createdAt,value
2022-10-28T00:01:47.300Z,6.13
2022-10-28T00:04:16.481Z,5.82
2022-10-28T00:06:47.040Z,6.13
2022-10-28T00:09:16.140Z,5.97
2022-10-28T00:11:45.491Z,6.00
2022-10-28T00:14:15.194Z,5.95
2022-10-28T00:16:44.302Z,5.43
2022-10-28T00:19:15.019Z,5.63
2022-10-28T00:21:45.083Z,6.05
2022-10-28T00:24:15.894Z,5.43
2022-10-28T00:26:46.052Z,6.00
2022-10-28T00:29:17.505Z,5.70
2022-10-28T00:31:47.219Z,6.25
2022-10-28T00:34:17.961Z,6.07
2022-10-28T00:36:48.394Z,5.85
2022-10-28T00:39:20.686Z,6.07
2022-10-28T00:41:52.211Z,6.13
2022-10-28T00:44:57.808Z,6.97
2022-10-28T00:47:39.832Z,5.85
2022-10-28T00:50:17.805Z,6.22
2022-10-28T00:52:49.913Z,5.93
2022-10-28T00:55:22.300Z,6.80
2022-10-28T00:57:56.727Z,5.90
2022-10-28T01:00:27.188Z,6.07
2022-10-28T01:02:57.023Z,6.32
2022-10-28T01:05:28.649Z,6.15
2022-10-28T01:08:00.730Z,6.55
2022-10-28T01:10:42.979Z,6.35
2022-10-28T01:13:16.844Z,6.57
2022-10-28T01:15:53.696Z,7.28
2022-10-28T01:18:36.512Z,6.38
2022-10-28T01:21:54.128Z,7.15
2022-10-28T01:24:38.228Z,6.70
2022-10-28T01:27:38.347Z,7.05
2022-10-28T01:30:15.183Z,6.68
2022-10-28T01:32:53.984Z,6.97
2022-10-28T01:35:28.850Z,6.32
2022-10-28T01:38:13.998Z,5.97
2022-10-28T01:40:48.125Z,6.53
2022-10-28T01:43:25.364Z,6.65
2022-10-28T01:46:01.986Z,6.25
2022-10-28T01:48:40.662Z,7.35
2022-10-28T01:51:15.464Z,6.43
2022-10-28T01:53:48.855Z,6.45
2022-10-28T01:56:22.488Z,7.20
2022-10-28T02:01:22.388Z,5.85
2022-10-28T02:03:54.376Z,6.35
2022-10-28T02:06:26.591Z,6.03
2022-10-28T02:09:05.204Z,6.80
2022-10-28T02:11:57.989Z,6.68
2022-10-28T02:14:40.438Z,6.75
2022-10-28T02:17:17.166Z,6.53
2022-10-28T02:19:51.768Z,5.78
2022-10-28T02:22:24.555Z,7.28
2022-10-28T02:25:03.403Z,6.17
2022-10-28T02:27:37.683Z,6.57
2022-10-28T02:30:10.721Z,6.32
2022-10-28T02:32:45.657Z,7.47
2022-10-28T02:35:19.972Z,6.60
2022-10-28T02:37:52.020Z,6.55
2022-10-28T02:40:24.215Z,7.15
2022-10-28T02:42:57.850Z,6.75
2022-10-28T02:48:03.002Z,6.57
2022-10-28T02:50:36.584Z,6.45
2022-10-28T02:55:44.825Z,6.60
2022-10-28T02:58:14.092Z,6.78
2022-10-28T03:00:45.968Z,6.72
2022-10-28T03:03:15.393Z,6.97
2022-10-28T03:05:46.245Z,6.45
2022-10-28T03:08:15.306Z,7.32
2022-10-28T03:10:44.271Z,7.38
2022-10-28T03:13:13.321Z,6.75
2022-10-28T03:15:42.357Z,7.05
2022-10-28T03:18:11.293Z,6.63
2022-10-28T03:20:40.346Z,7.22
2022-10-28T03:23:10.632Z,6.32
2022-10-28T03:25:39.708Z,8.05
2022-10-28T03:28:08.701Z,7.20
2022-10-28T03:30:37.970Z,6.35
2022-10-28T03:33:06.983Z,6.90
2022-10-28T03:35:35.957Z,7.40
2022-10-28T03:38:05.023Z,6.50
2022-10-28T03:40:35.505Z,6.93
2022-10-28T03:43:04.504Z,6.47
2022-10-28T03:45:33.869Z,6.93
2022-10-28T03:48:02.796Z,7.25
2022-10-28T03:50:32.654Z,6.93
2022-10-28T03:53:01.486Z,7.72
2022-10-28T03:55:30.448Z,7.18
2022-10-28T03:58:03.492Z,7.28
2022-10-28T04:00:33.366Z,7.43
2022-10-28T04:03:02.693Z,7.85
2022-10-28T04:05:31.694Z,7.25
2022-10-28T04:08:00.578Z,7.82
2022-10-28T04:10:29.465Z,7.75
2022-10-28T04:13:02.342Z,7.80
2022-10-28T04:15:31.658Z,7.00
2022-10-28T04:18:00.659Z,7.47
2022-10-28T04:20:30.389Z,7.30
2022-10-28T04:22:59.770Z,7.15
2022-10-28T04:25:30.264Z,7.90
2022-10-28T04:27:59.276Z,7.63
2022-10-28T04:30:30.022Z,7.60
2022-10-28T04:32:58.884Z,7.05
2022-10-28T04:35:28.782Z,6.90
2022-10-28T04:37:57.864Z,8.40
2022-10-28T04:40:26.849Z,6.78
2022-10-28T04:42:56.103Z,8.15
2022-10-28T04:45:25.809Z,7.28
2022-10-28T04:47:59.932Z,7.15
2022-10-28T04:50:29.157Z,7.07
2022-10-28T04:52:58.349Z,7.72
2022-10-28T04:55:27.241Z,8.18
2022-10-28T04:57:57.284Z,7.40
2022-10-28T05:00:27.594Z,8.23
2022-10-28T05:02:57.033Z,8.15
2022-10-28T05:05:27.558Z,8.13
2022-10-28T05:07:56.581Z,8.60
2022-10-28T05:10:26.071Z,7.88
2022-10-28T05:12:55.190Z,7.85
2022-10-28T05:15:24.514Z,7.85
2022-10-28T05:17:54.855Z,7.85
2022-10-28T05:20:24.696Z,9.00
2022-10-28T05:22:57.158Z,9.00
2022-10-28T05:25:27.122Z,8.63
2022-10-28T05:28:00.442Z,9.40
2022-10-28T05:30:29.715Z,9.18
2022-10-28T05:33:02.795Z,8.27
2022-10-28T05:35:32.416Z,9.05
2022-10-28T05:38:02.873Z,9.18
2022-10-28T05:40:32.733Z,8.52
2022-10-28T05:43:01.716Z,9.38
2022-10-28T05:48:04.968Z,9.20
2022-10-28T05:50:34.838Z,13.07
2022-10-28T05:53:05.330Z,10.35
2022-10-28T09:07:17.986Z,8.18
2022-10-28T09:09:48.627Z,7.25
2022-10-28T09:12:28.852Z,7.03
2022-10-28T09:15:20.626Z,9.55
2022-10-28T09:17:55.381Z,14.68
2022-10-28T09:20:34.673Z,7.55
2022-10-28T09:23:15.975Z,5.10
2022-10-28T09:25:55.910Z,3.97
2022-10-28T09:28:40.077Z,4.10
2022-10-28T09:31:15.961Z,2.83
2022-10-28T09:33:57.800Z,2.38
2022-10-28T09:36:38.993Z,3.10
2022-10-28T09:39:18.142Z,2.30
2022-10-28T09:41:49.145Z,1.95
2022-10-28T09:44:25.099Z,1.75
2022-10-28T09:46:58.082Z,1.40
2022-10-28T09:49:33.612Z,1.00
2022-10-28T09:52:07.063Z,1.67
2022-10-28T09:54:43.632Z,1.50
2022-10-28T09:57:16.500Z,1.85
2022-10-28T09:59:47.746Z,3.25
2022-10-28T10:02:28.344Z,3.47
2022-10-28T10:04:59.519Z,2.72
2022-10-28T10:07:36.737Z,2.92
2022-10-28T10:10:15.255Z,4.22
2022-10-28T10:12:47.456Z,3.17
2022-10-28T10:15:29.488Z,2.80
2022-10-28T10:18:01.878Z,3.60
2022-10-28T10:20:48.757Z,3.10
2022-10-28T10:23:31.252Z,2.55
2022-10-28T10:26:08.047Z,3.65
2022-10-28T10:28:45.702Z,3.08
2022-10-28T10:31:21.615Z,3.28
2022-10-28T10:33:53.714Z,4.22
2022-10-28T10:36:28.491Z,3.17
2022-10-28T10:38:59.550Z,2.40
2022-10-28T10:41:37.854Z,3.35
2022-10-28T10:44:31.953Z,3.40
2022-10-28T10:47:31.200Z,3.13
2022-10-28T10:50:23.054Z,3.33
2022-10-28T10:52:56.648Z,2.90
2022-10-28T10:55:34.268Z,3.40
2022-10-28T10:58:37.080Z,2.58
2022-10-28T11:01:09.689Z,3.80
2022-10-28T11:03:49.016Z,3.20
2022-10-28T11:06:25.270Z,4.05
2022-10-28T11:09:00.750Z,3.17
2022-10-28T11:11:37.393Z,2.80
2022-10-28T11:14:22.231Z,2.88
2022-10-28T11:16:53.833Z,3.40
2022-10-28T11:19:29.625Z,2.90
2022-10-28T11:22:22.666Z,2.95
2022-10-28T11:25:10.922Z,2.58
2022-10-28T11:27:53.815Z,2.42
2022-10-28T11:30:37.543Z,2.85
2022-10-28T11:33:29.619Z,3.00
2022-10-28T11:36:13.932Z,2.55
2022-10-28T11:39:14.762Z,2.40
2022-10-28T11:41:54.540Z,2.40
2022-10-28T11:44:43.512Z,2.35
2022-10-28T11:47:31.627Z,2.00
2022-10-28T11:50:30.230Z,1.70
2022-10-28T11:53:16.354Z,2.22
2022-10-28T11:55:54.128Z,2.65
2022-10-28T11:58:34.922Z,2.17
2022-10-28T12:01:33.410Z,2.22
2022-10-28T12:04:27.514Z,2.15
2022-10-28T12:07:26.877Z,2.20
2022-10-28T12:10:21.378Z,1.80
2022-10-28T12:13:01.824Z,2.05
2022-10-28T12:15:39.119Z,1.83
2022-10-28T12:18:22.352Z,2.45
2022-10-28T12:21:00.893Z,2.00
2022-10-28T12:23:34.987Z,2.05
2022-10-28T12:26:09.689Z,2.05
2022-10-28T12:28:44.828Z,2.10
2022-10-28T12:31:21.929Z,2.30
2022-10-28T12:33:54.731Z,2.45
2022-10-28T12:36:34.316Z,2.08
2022-10-28T12:39:12.433Z,2.53
2022-10-28T12:41:51.498Z,2.45
2022-10-28T12:44:22.658Z,2.00
2022-10-28T12:47:03.349Z,5.88
2022-10-28T12:49:43.142Z,2.50
2022-10-28T12:52:26.798Z,2.75
2022-10-28T12:55:04.370Z,4.10
2022-10-28T12:57:37.154Z,2.85
2022-10-28T13:00:17.508Z,3.13
2022-10-28T13:02:53.449Z,2.72
2022-10-28T13:05:28.258Z,4.93
2022-10-28T13:08:32.301Z,5.75
2022-10-28T13:11:30.389Z,2.35
2022-10-28T13:14:08.094Z,2.50
2022-10-28T13:16:51.086Z,2.63
2022-10-28T13:19:39.951Z,3.13
2022-10-28T13:22:39.467Z,2.70
2022-10-28T13:25:27.874Z,3.47
2022-10-28T13:27:59.330Z,4.07
2022-10-28T13:30:32.223Z,3.63
2022-10-28T13:33:07.349Z,3.28
2022-10-28T13:35:38.820Z,3.45
2022-10-28T13:38:12.711Z,3.60
2022-10-28T13:41:12.206Z,2.97
2022-10-28T13:44:15.578Z,3.90
2022-10-28T13:47:19.128Z,6.13
2022-10-28T13:50:33.895Z,3.60
2022-10-28T13:55:57.754Z,3.78
2022-10-28T13:58:29.494Z,3.45
2022-10-28T14:01:39.492Z,3.58
2022-10-28T14:04:26.556Z,3.80
2022-10-28T14:07:05.279Z,3.53
2022-10-28T14:09:37.201Z,3.17
2022-10-28T14:12:23.814Z,3.00
2022-10-28T14:15:02.010Z,3.72
2022-10-28T14:17:42.533Z,3.67
2022-10-28T14:20:35.076Z,3.55
2022-10-28T14:23:38.060Z,3.22
2022-10-28T14:26:07.768Z,3.22
2022-10-28T14:28:56.492Z,3.33
2022-10-28T14:31:58.091Z,3.47
2022-10-28T14:34:45.710Z,8.07
2022-10-28T14:37:39.286Z,10.02
2022-10-28T14:40:23.742Z,4.45
2022-10-28T14:43:14.595Z,4.15
2022-10-28T14:45:55.996Z,4.65
2022-10-28T14:48:54.578Z,4.47
2022-10-28T14:51:26.601Z,5.20
2022-10-28T14:53:59.739Z,6.95
2022-10-28T14:56:31.953Z,5.20
2022-10-28T14:59:15.801Z,4.25
2022-10-28T15:01:58.770Z,4.63
2022-10-28T15:04:30.621Z,3.77
2022-10-28T15:07:00.940Z,5.05
2022-10-28T15:09:32.807Z,4.50
2022-10-28T15:12:06.906Z,4.50
2022-10-28T15:14:38.417Z,4.68
2022-10-28T15:17:19.022Z,4.88
2022-10-28T15:19:51.927Z,4.50
2022-10-28T15:22:23.383Z,7.93
2022-10-28T15:25:01.588Z,5.57
2022-10-28T15:27:34.587Z,4.95
2022-10-28T15:30:14.521Z,5.53
2022-10-28T15:32:44.620Z,5.80
2022-10-28T15:35:41.234Z,5.30
2022-10-28T15:38:44.642Z,5.43
2022-10-28T15:41:42.569Z,5.05
2022-10-28T15:44:31.982Z,6.20
2022-10-28T15:47:17.330Z,5.22
2022-10-28T15:50:03.308Z,5.95
2022-10-28T15:52:41.081Z,6.40
2022-10-28T15:55:47.930Z,5.57
2022-10-28T15:58:35.837Z,5.93
2022-10-28T16:01:11.852Z,6.65
2022-10-28T16:03:47.439Z,6.28
2022-10-28T16:06:28.045Z,6.38
2022-10-28T16:09:17.544Z,6.68
2022-10-28T16:11:50.354Z,10.15
2022-10-28T16:14:34.814Z,6.13
2022-10-28T16:17:15.308Z,7.07
2022-10-28T16:19:50.942Z,6.45
2022-10-28T16:22:22.756Z,6.97
2022-10-28T16:24:54.902Z,7.35
2022-10-28T16:27:26.177Z,6.03
2022-10-28T16:29:55.963Z,7.35
2022-10-28T16:32:29.544Z,6.78
2022-10-28T16:35:03.154Z,8.13
2022-10-28T16:37:36.736Z,7.30
2022-10-28T16:40:30.773Z,7.53
2022-10-28T16:43:03.184Z,7.45
2022-10-28T16:45:32.641Z,7.75
2022-10-28T16:48:02.746Z,8.60
2022-10-28T16:50:32.928Z,7.47
2022-10-28T16:53:02.982Z,7.80
2022-10-28T16:55:39.881Z,7.57
2022-10-28T19:30:12.386Z,16.83
2022-10-28T19:32:48.590Z,13.68
2022-10-28T19:35:21.900Z,13.15
2022-10-28T19:37:54.278Z,12.82
2022-10-28T19:40:24.096Z,13.07
2022-10-28T19:43:03.846Z,12.13
2022-10-28T19:45:42.129Z,13.70
2022-10-28T19:48:11.737Z,12.65
2022-10-28T19:50:41.449Z,13.98
2022-10-28T19:53:10.783Z,13.15
2022-10-28T19:55:40.066Z,12.50
2022-10-28T19:58:22.282Z,12.02
2022-10-28T20:01:23.893Z,13.05
2022-10-28T20:04:04.664Z,12.13
2022-10-28T20:06:36.155Z,12.73
2022-10-28T20:09:12.824Z,12.68
2022-10-28T20:11:44.910Z,13.15
2022-10-28T20:14:14.322Z,12.80
2022-10-28T20:16:46.584Z,12.98
2022-10-28T20:19:17.015Z,39.50
2022-10-28T20:21:58.295Z,16.65
2022-10-28T20:24:28.300Z,14.65
2022-10-28T20:26:57.712Z,18.60
2022-10-28T20:29:35.274Z,13.32
2022-10-28T20:32:11.960Z,12.80
2022-10-28T20:34:50.482Z,12.75
2022-10-28T20:37:19.951Z,12.55
2022-10-28T20:39:53.650Z,13.90
2022-10-28T20:42:34.876Z,12.80
2022-10-28T20:45:34.279Z,12.40
2022-10-28T20:48:06.042Z,13.07
2022-10-28T20:50:36.164Z,13.68
2022-10-28T20:53:05.794Z,13.30
2022-10-28T20:55:35.451Z,13.02
2022-10-28T20:58:07.079Z,13.60
2022-10-28T21:00:36.805Z,13.18
2022-10-28T21:03:16.677Z,13.45
2022-10-28T21:05:45.736Z,13.25
2022-10-28T21:08:15.089Z,13.45
2022-10-28T21:10:43.979Z,13.82
2022-10-28T21:13:15.333Z,14.05
2022-10-28T21:15:54.567Z,13.32
2022-10-28T21:18:37.913Z,13.85
2022-10-28T21:21:11.644Z,12.70
2022-10-28T21:23:46.195Z,13.77
2022-10-28T21:26:21.666Z,13.23
2022-10-28T21:28:52.079Z,13.48
2022-10-28T21:31:25.135Z,13.75
2022-10-28T21:33:55.816Z,13.32
2022-10-28T21:36:31.113Z,13.40
2022-10-28T21:39:00.161Z,15.13
2022-10-28T21:41:57.883Z,13.90
2022-10-28T21:44:26.966Z,13.45
2022-10-28T21:46:56.551Z,15.00
2022-10-28T21:49:28.103Z,13.95
2022-10-28T21:51:59.586Z,14.98
2022-10-28T21:54:39.946Z,15.65
2022-10-28T21:57:09.346Z,14.07
2022-10-28T21:59:38.674Z,15.13
2022-10-28T22:02:07.811Z,14.45
2022-10-28T22:04:39.773Z,16.30
2022-10-28T22:07:10.877Z,14.90
2022-10-28T22:09:40.734Z,14.93
2022-10-28T22:12:10.574Z,14.88
2022-10-28T22:14:40.339Z,15.48
2022-10-28T22:17:09.874Z,15.82
2022-10-28T22:19:40.747Z,15.23
2022-10-28T22:22:10.400Z,14.80
2022-10-28T22:24:42.700Z,15.03
2022-10-28T22:27:11.702Z,14.85
2022-10-28T22:29:40.921Z,15.07
2022-10-28T22:32:10.310Z,15.88
2022-10-28T22:34:43.558Z,14.98
2022-10-28T22:37:16.244Z,15.18
2022-10-28T22:40:00.799Z,14.90
2022-10-28T22:42:36.435Z,14.63
2022-10-28T22:45:19.530Z,14.05
2022-10-28T22:47:50.679Z,14.05
2022-10-28T22:50:21.289Z,14.65
2022-10-28T22:52:50.546Z,15.05
2022-10-28T22:55:22.195Z,13.60
2022-10-28T22:57:51.299Z,15.05
2022-10-28T23:00:31.607Z,14.32
2022-10-28T23:03:02.470Z,14.98
2022-10-28T23:05:43.553Z,14.82
2022-10-28T23:08:18.392Z,14.23
2022-10-28T23:10:50.159Z,14.23
2022-10-28T23:13:54.166Z,14.57
2022-10-28T23:16:22.338Z,14.85
2022-10-28T23:18:53.084Z,14.25
2022-10-28T23:21:25.069Z,14.35
2022-10-28T23:24:00.888Z,14.40
2022-10-28T23:26:30.953Z,13.75
2022-10-28T23:29:01.323Z,15.13
2022-10-28T23:31:30.732Z,15.25
2022-10-28T23:34:02.839Z,14.27
2022-10-28T23:36:34.858Z,13.15
2022-10-28T23:39:05.666Z,14.15
2022-10-28T23:41:37.990Z,13.75
2022-10-28T23:44:08.707Z,14.55
2022-10-28T23:47:08.390Z,13.27
2022-10-28T23:49:38.813Z,13.20
2022-10-28T23:52:10.935Z,13.45
2022-10-28T23:54:39.918Z,13.75
2022-10-28T23:57:13.019Z,13.70
2022-10-28T23:59:41.993Z,12.60
